Time,TemperatureF,DewpointF,PressureIn,WindDirection,WindDirectionDegrees,WindSpeedMPH,WindSpeedGustMPH,Humidity,HourlyPrecipIn,Conditions,Clouds,dailyrainin,SoftwareType,DateUTC
2013-06-25 00:01:00,67.0,63.0,30.19,SSE,153,0.0,0.0,87,0.00,,,0.01,,2013-06-25 04:01:00,
2013-06-25 00:11:00,67.0,63.0,30.20,SSE,153,0.0,0.0,88,0.00,,,0.01,,2013-06-25 04:11:00,
2013-06-25 00:22:00,66.0,63.0,30.20,SSE,153,0.0,0.0,89,0.00,,,0.00,,2013-06-25 04:22:00,
2013-06-25 00:43:00,66.0,63.0,30.19,SSE,153,0.0,0.0,91,0.00,,,0.00,,2013-06-25 04:43:00,
2013-06-25 00:52:00,66.0,63.0,30.19,SSE,153,0.0,0.0,91,0.00,,,0.00,,2013-06-25 04:52:00,
2013-06-25 01:01:00,66.0,63.0,30.19,SSE,153,0.0,0.0,91,0.00,,,0.00,,2013-06-25 05:01:00,
2013-06-25 01:11:00,65.0,62.0,30.19,SSE,153,0.0,0.0,91,0.00,,,0.00,,2013-06-25 05:11:00,
2013-06-25 01:22:00,65.0,63.0,30.19,SSE,153,0.0,0.0,92,0.00,,,0.00,,2013-06-25 05:22:00,
2013-06-25 01:44:00,65.0,63.0,30.19,SSE,153,0.0,0.0,92,0.00,,,0.00,,2013-06-25 05:44:00,
2013-06-25 01:52:00,65.0,63.0,30.19,SSE,153,0.0,0.0,92,0.00,,,0.00,,2013-06-25 05:52:00,
2013-06-25 02:01:00,64.0,62.0,30.19,SSE,153,0.0,0.0,93,0.00,,,0.00,,2013-06-25 06:01:00,
2013-06-25 02:11:00,64.0,62.0,30.19,SSE,153,0.0,0.0,93,0.00,,,0.00,,2013-06-25 06:11:00,
2013-06-25 02:33:00,64.0,62.0,30.18,SSE,153,0.0,0.0,94,0.00,,,0.00,,2013-06-25 06:33:00,
2013-06-25 02:43:00,64.0,62.0,30.17,SSE,153,0.0,0.0,93,0.00,,,0.00,,2013-06-25 06:43:00,
2013-06-25 02:52:00,64.0,62.0,30.17,SSE,153,0.0,0.0,93,0.00,,,0.00,,2013-06-25 06:52:00,
2013-06-25 03:02:00,64.0,62.0,30.18,SSE,153,0.0,0.0,94,0.00,,,0.00,,2013-06-25 07:02:00,
2013-06-25 03:11:00,64.0,62.0,30.18,SSE,153,0.0,0.0,94,0.00,,,0.00,,2013-06-25 07:11:00,
2013-06-25 03:22:00,63.0,61.0,30.17,SSE,153,0.0,0.0,94,0.00,,,0.00,,2013-06-25 07:22:00,
2013-06-25 03:33:00,63.0,61.0,30.16,SSE,153,0.0,0.0,94,0.00,,,0.00,,2013-06-25 07:33:00,
2013-06-25 03:43:00,63.0,61.0,30.16,SSE,153,0.0,0.0,94,0.00,,,0.00,,2013-06-25 07:43:00,
2013-06-25 03:52:00,63.0,61.0,30.16,SSE,153,0.0,0.0,94,0.00,,,0.00,,2013-06-25 07:52:00,
2013-06-25 04:11:00,63.0,61.0,30.16,SSE,153,0.0,0.0,94,0.00,,,0.00,,2013-06-25 08:11:00,
2013-06-25 04:43:00,63.0,61.0,30.16,SSE,153,0.0,0.0,94,0.00,,,0.00,,2013-06-25 08:43:00,
2013-06-25 04:53:00,62.0,61.0,30.16,SSE,153,0.0,0.0,95,0.00,,,0.00,,2013-06-25 08:53:00,
2013-06-25 05:12:00,62.0,61.0,30.15,SSE,153,0.0,0.0,95,0.00,,,0.00,,2013-06-25 09:12:00,
2013-06-25 05:33:00,62.0,61.0,30.15,SSE,153,0.0,0.0,95,0.00,,,0.00,,2013-06-25 09:33:00,
2013-06-25 05:43:00,62.0,61.0,30.16,SSE,153,0.0,0.0,95,0.00,,,0.00,,2013-06-25 09:43:00,
2013-06-25 05:53:00,62.0,61.0,30.16,SSE,153,0.0,0.0,95,0.00,,,0.00,,2013-06-25 09:53:00,
2013-06-25 06:01:00,62.0,61.0,30.16,SSE,153,0.0,0.0,95,0.00,,,0.00,,2013-06-25 10:01:00,
2013-06-25 06:11:00,62.0,61.0,30.16,SSE,153,0.0,0.0,95,0.00,,,0.00,,2013-06-25 10:11:00,
2013-06-25 06:33:00,61.0,60.0,30.16,SSE,153,0.0,0.0,95,0.00,,,0.00,,2013-06-25 10:33:00,
2013-06-25 06:42:00,61.0,60.0,30.17,SSE,153,0.0,0.0,95,0.00,,,0.00,,2013-06-25 10:42:00,
2013-06-25 06:52:00,61.0,60.0,30.18,SSE,153,0.0,0.0,95,0.00,,,0.00,,2013-06-25 10:52:00,
2013-06-25 07:02:00,61.0,60.0,30.18,SSE,153,0.0,0.0,95,0.00,,,0.00,,2013-06-25 11:02:00,
2013-06-25 07:12:00,61.0,60.0,30.18,SSE,153,0.0,0.0,95,0.00,,,0.00,,2013-06-25 11:12:00,
2013-06-25 07:34:00,61.0,60.0,30.19,SSE,153,0.0,0.0,95,0.00,,,0.00,,2013-06-25 11:34:00,
2013-06-25 07:43:00,61.0,60.0,30.19,SSE,153,0.0,0.0,96,0.00,,,0.00,,2013-06-25 11:43:00,
2013-06-25 07:52:00,61.0,60.0,30.19,SSE,153,0.0,0.0,96,0.00,,,0.00,,2013-06-25 11:52:00,
2013-06-25 08:11:00,62.0,61.0,30.19,SSE,153,0.0,0.0,96,0.00,,,0.00,,2013-06-25 12:11:00,
2013-06-25 08:22:00,62.0,61.0,30.19,SSE,153,0.0,0.0,96,0.00,,,0.00,,2013-06-25 12:22:00,
2013-06-25 08:43:00,63.0,62.0,30.19,SSE,153,0.0,0.0,97,0.00,,,0.00,,2013-06-25 12:43:00,
2013-06-25 09:22:00,64.0,63.0,30.19,SSE,153,0.0,0.0,96,0.00,,,0.00,,2013-06-25 13:22:00,
2013-06-25 09:34:00,65.0,64.0,30.20,SSE,153,0.0,1.0,96,0.00,,,0.00,,2013-06-25 13:34:00,
2013-06-25 10:02:00,67.0,65.0,30.20,SSE,152,0.0,0.0,93,0.00,,,0.00,,2013-06-25 14:02:00,
2013-06-25 10:11:00,67.0,64.0,30.20,SSE,152,0.0,0.0,90,0.00,,,0.00,,2013-06-25 14:11:00,
2013-06-25 10:34:00,68.0,65.0,30.20,SSE,152,0.0,1.0,91,0.00,,,0.00,,2013-06-25 14:34:00,
2013-06-25 10:43:00,69.0,66.0,30.20,SE,128,0.0,1.0,90,0.00,,,0.00,,2013-06-25 14:43:00,
2013-06-25 11:02:00,70.0,67.0,30.20,SE,128,0.0,1.0,89,0.00,,,0.00,,2013-06-25 15:02:00,
2013-06-25 11:11:00,70.0,66.0,30.20,SE,128,0.0,0.0,88,0.00,,,0.00,,2013-06-25 15:11:00,
2013-06-25 11:32:00,71.0,66.0,30.20,NW,321,2.0,5.0,83,0.00,,,0.00,,2013-06-25 15:32:00,
2013-06-25 11:44:00,73.0,69.0,30.19,NE,37,0.0,3.0,87,0.00,,,0.00,,2013-06-25 15:44:00,
2013-06-25 12:03:00,74.0,68.0,30.19,NE,38,0.0,1.0,82,0.00,,,0.00,,2013-06-25 16:03:00,
2013-06-25 12:23:00,76.0,68.0,30.18,NE,55,0.0,2.0,77,0.00,,,0.00,,2013-06-25 16:23:00,
2013-06-25 12:35:00,77.0,68.0,30.18,NE,39,0.0,2.0,73,0.00,,,0.00,,2013-06-25 16:35:00,
2013-06-25 13:01:00,77.0,67.0,30.16,SSW,213,0.0,5.0,72,0.00,,,0.00,,2013-06-25 17:01:00,
2013-06-25 13:22:00,77.0,68.0,30.16,ENE,68,0.0,2.0,75,0.00,,,0.00,,2013-06-25 17:22:00,
2013-06-25 13:33:00,79.0,69.0,30.16,ENE,72,0.0,2.0,71,0.00,,,0.00,,2013-06-25 17:33:00,
2013-06-25 13:44:00,79.0,70.0,30.15,ENE,70,0.0,2.0,73,0.00,,,0.00,,2013-06-25 17:44:00,
2013-06-25 13:53:00,79.0,70.0,30.15,ENE,70,0.0,2.0,73,0.00,,,0.00,,2013-06-25 17:53:00,
2013-06-25 14:02:00,79.0,69.0,30.14,East,81,0.0,1.0,72,0.00,,,0.00,,2013-06-25 18:02:00,
2013-06-25 14:23:00,78.0,67.0,30.14,ENE,72,0.0,1.0,70,0.00,,,0.00,,2013-06-25 18:23:00,
2013-06-25 14:34:00,78.0,68.0,30.14,ESE,105,0.0,2.0,71,0.00,,,0.00,,2013-06-25 18:34:00,
2013-06-25 15:01:00,76.0,67.0,30.13,WNW,284,3.0,6.0,74,0.00,,,0.00,,2013-06-25 19:01:00,
2013-06-25 15:22:00,74.0,66.0,30.12,WSW,257,0.0,5.0,77,0.00,,,0.00,,2013-06-25 19:22:00,
2013-06-25 15:33:00,73.0,66.0,30.12,WNW,284,1.0,3.0,80,0.00,,,0.00,,2013-06-25 19:33:00,
2013-06-25 15:44:00,74.0,67.0,30.12,West,265,1.0,3.0,80,0.00,,,0.00,,2013-06-25 19:44:00,
2013-06-25 16:02:00,73.0,67.0,30.12,West,260,1.0,4.0,82,0.00,,,0.00,,2013-06-25 20:02:00,
2013-06-25 16:22:00,73.0,67.0,30.12,WSW,239,1.0,8.0,82,0.00,,,0.00,,2013-06-25 20:22:00,
2013-06-25 16:33:00,72.0,67.0,30.11,WSW,245,0.0,2.0,83,0.00,,,0.00,,2013-06-25 20:33:00,
2013-06-25 17:01:00,73.0,68.0,30.11,West,264,0.0,4.0,83,0.00,,,0.00,,2013-06-25 21:01:00,
2013-06-25 17:22:00,74.0,68.0,30.11,West,264,0.0,1.0,83,0.00,,,0.00,,2013-06-25 21:22:00,
2013-06-25 17:34:00,75.0,68.0,30.11,West,277,1.0,3.0,78,0.00,,,0.00,,2013-06-25 21:34:00,
2013-06-25 17:43:00,75.0,68.0,30.10,South,169,0.0,3.0,79,0.00,,,0.00,,2013-06-25 21:43:00,
2013-06-25 17:53:00,75.0,68.0,30.10,South,169,0.0,3.0,79,0.00,,,0.00,,2013-06-25 21:53:00,
2013-06-25 18:01:00,75.0,68.0,30.09,SSE,165,0.0,1.0,79,0.00,,,0.00,,2013-06-25 22:01:00,
2013-06-25 18:11:00,75.0,67.0,30.08,South,169,0.0,0.0,77,0.00,,,0.00,,2013-06-25 22:11:00,
2013-06-25 18:34:00,75.0,68.0,30.07,NW,323,0.0,0.0,80,0.00,,,0.00,,2013-06-25 22:34:00,
2013-06-25 18:42:00,75.0,68.0,30.08,SSE,152,0.0,3.0,80,0.00,,,0.00,,2013-06-25 22:42:00,
2013-06-25 19:01:00,74.0,68.0,30.08,SW,224,0.0,2.0,81,0.00,,,0.00,,2013-06-25 23:01:00,
2013-06-25 19:11:00,73.0,68.0,30.08,WSW,245,0.0,3.0,83,0.00,,,0.00,,2013-06-25 23:11:00,
2013-06-25 19:34:00,72.0,67.0,30.08,West,274,0.0,1.0,84,0.00,,,0.00,,2013-06-25 23:34:00,
2013-06-25 19:44:00,73.0,68.0,30.08,SE,128,0.0,2.0,84,0.00,,,0.00,,2013-06-25 23:44:00,
2013-06-25 19:52:00,73.0,68.0,30.09,SE,129,0.0,1.0,83,0.00,,,0.00,,2013-06-25 23:52:00,
2013-06-25 20:02:00,73.0,68.0,30.09,SE,129,0.0,1.0,83,0.00,,,0.00,,2013-06-26 00:02:00,
2013-06-25 20:11:00,73.0,68.0,30.09,SSE,157,0.0,2.0,83,0.00,,,0.00,,2013-06-26 00:11:00,
2013-06-25 20:22:00,73.0,68.0,30.09,SSE,164,0.0,0.0,84,0.00,,,0.00,,2013-06-26 00:22:00,
2013-06-25 20:33:00,73.0,68.0,30.09,SSE,164,0.0,0.0,84,0.00,,,0.00,,2013-06-26 00:33:00,
2013-06-25 20:42:00,72.0,67.0,30.09,SSE,164,0.0,0.0,85,0.00,,,0.00,,2013-06-26 00:42:00,
2013-06-25 20:52:00,71.0,66.0,30.09,SSE,164,0.0,1.0,85,0.00,,,0.00,,2013-06-26 00:52:00,
2013-06-25 21:01:00,71.0,66.0,30.09,SSE,164,0.0,1.0,85,0.00,,,0.00,,2013-06-26 01:01:00,
2013-06-25 21:11:00,71.0,67.0,30.09,SSE,164,0.0,0.0,86,0.00,,,0.00,,2013-06-26 01:11:00,
2013-06-25 21:22:00,70.0,66.0,30.10,SSE,164,0.0,0.0,86,0.00,,,0.00,,2013-06-26 01:22:00,
2013-06-25 21:33:00,70.0,66.0,30.10,SSE,164,0.0,0.0,86,0.00,,,0.00,,2013-06-26 01:33:00,
2013-06-25 21:43:00,69.0,65.0,30.09,SSE,164,0.0,0.0,87,0.00,,,0.00,,2013-06-26 01:43:00,
2013-06-25 22:02:00,69.0,65.0,30.09,SSE,164,0.0,1.0,87,0.00,,,0.00,,2013-06-26 02:02:00,
2013-06-25 22:22:00,68.0,64.0,30.09,SSE,164,0.0,0.0,88,0.00,,,0.00,,2013-06-26 02:22:00,
2013-06-25 22:34:00,68.0,65.0,30.10,SSE,164,0.0,0.0,89,0.00,,,0.00,,2013-06-26 02:34:00,
2013-06-25 22:43:00,67.0,64.0,30.11,SSE,164,0.0,0.0,89,0.00,,,0.00,,2013-06-26 02:43:00,
2013-06-25 23:02:00,67.0,64.0,30.11,SSE,164,0.0,1.0,90,0.00,,,0.00,,2013-06-26 03:02:00,
2013-06-25 23:22:00,67.0,64.0,30.11,SSE,164,0.0,0.0,91,0.00,,,0.00,,2013-06-26 03:22:00,
2013-06-25 23:33:00,67.0,64.0,30.11,SSE,164,0.0,0.0,91,0.00,,,0.00,,2013-06-26 03:33:00,
2013-06-25 23:43:00,67.0,64.0,30.10,SSE,164,0.0,1.0,91,0.00,,,0.00,,2013-06-26 03:43:00,
2013-06-25 23:52:00,67.0,64.0,30.10,SSE,164,0.0,1.0,91,0.00,,,0.00,,2013-06-26 03:52:00,